Time;durP1;ratioP1;P1;durP2;ratioP2;P2;SDS_P1;SDS_P2;PMS_P1;PMS_P2;Temp;Humidity;BMP_temperature;BMP_pressure;BME280_temperature;BME280_humidity;BME280_pressure;Samples;Min_cycle;Max_cycle;Signal;HPM_P1;HPM_P2
2023/03/04 00:01:13;;;;;;;58.17;25.20;;;3.10;81.20;;;;;;5051048;28;20926;-74
2023/03/04 00:03:38;;;;;;;57.70;26.10;;;3.10;81.40;;;;;;5048663;28;20290;-73
2023/03/04 00:06:04;;;;;;;59.53;26.03;;;3.10;81.40;;;;;;5055017;28;20263;-75
2023/03/04 00:08:30;;;;;;;59.50;25.57;;;3.10;81.50;;;;;;5031115;28;20276;-73
2023/03/04 00:10:56;;;;;;;58.23;25.10;;;3.00;81.50;;;;;;5056314;28;20422;-74
2023/03/04 00:13:21;;;;;;;55.73;24.90;;;3.00;81.70;;;;;;5050786;28;20200;-71
2023/03/04 00:15:47;;;;;;;51.77;23.33;;;3.00;81.70;;;;;;5045833;28;20192;-72
2023/03/04 00:18:13;;;;;;;49.27;20.87;;;3.00;81.70;;;;;;5043542;28;20312;-75
2023/03/04 00:20:39;;;;;;;57.97;23.43;;;3.00;81.80;;;;;;5047864;28;20566;-73
2023/03/04 00:23:05;;;;;;;49.47;24.70;;;3.00;81.80;;;;;;5031450;28;20578;-74
2023/03/04 00:25:30;;;;;;;53.53;24.37;;;3.00;81.80;;;;;;5044678;28;20235;-73
2023/03/04 00:27:57;;;;;;;47.77;23.23;;;3.00;81.80;;;;;;5041659;28;20833;-76
2023/03/04 00:30:23;;;;;;;53.00;21.33;;;3.00;81.80;;;;;;5046837;28;20176;-72
2023/03/04 00:32:48;;;;;;;62.50;25.10;;;3.00;81.80;;;;;;5050089;28;20532;-74
2023/03/04 00:35:14;;;;;;;64.43;23.10;;;3.00;81.80;;;;;;5048548;28;20426;-73
2023/03/04 00:37:40;;;;;;;50.77;23.47;;;3.00;81.80;;;;;;5042232;28;20258;-74
2023/03/04 00:40:06;;;;;;;51.50;22.50;;;2.90;81.80;;;;;;5027243;28;21288;-73
2023/03/04 00:42:32;;;;;;;55.63;23.43;;;3.00;81.80;;;;;;5033618;28;20557;-72
2023/03/04 00:44:57;;;;;;;53.33;22.27;;;3.00;81.70;;;;;;5045673;28;20427;-74
2023/03/04 00:47:23;;;;;;;53.10;22.93;;;3.00;81.50;;;;;;5044982;28;20247;-74
2023/03/04 00:49:48;;;;;;;49.20;23.27;;;2.90;81.70;;;;;;5043959;28;20192;-74
2023/03/04 00:52:14;;;;;;;57.40;26.53;;;2.90;81.80;;;;;;5046715;28;20224;-73
2023/03/04 00:54:40;;;;;;;63.83;24.87;;;2.90;81.80;;;;;;5042554;28;20192;-74
2023/03/04 00:57:05;;;;;;;52.83;25.80;;;2.90;81.50;;;;;;5038863;28;20732;-75
2023/03/04 00:59:31;;;;;;;50.23;23.83;;;2.90;81.70;;;;;;5042706;28;20556;-72
2023/03/04 01:01:56;;;;;;;49.37;22.47;;;2.90;81.50;;;;;;5044591;28;20230;-72
2023/03/04 01:04:22;;;;;;;51.30;23.67;;;2.90;81.40;;;;;;5051897;28;20570;-72
2023/03/04 01:06:48;;;;;;;52.20;22.83;;;2.80;81.20;;;;;;5036192;28;20223;-74
2023/03/04 01:09:13;;;;;;;51.27;21.77;;;2.80;81.20;;;;;;5033721;28;20422;-72
2023/03/04 01:11:39;;;;;;;53.67;24.53;;;2.80;81.40;;;;;;5051397;28;20199;-72
2023/03/04 01:14:05;;;;;;;52.70;23.70;;;2.80;81.40;;;;;;5051508;28;20263;-71
2023/03/04 01:16:30;;;;;;;57.17;24.77;;;2.80;81.20;;;;;;5043830;28;20383;-73
2023/03/04 01:18:56;;;;;;;56.00;24.40;;;2.70;81.40;;;;;;5047043;28;20652;-74
2023/03/04 01:21:22;;;;;;;57.50;24.20;;;2.70;81.40;;;;;;5045551;28;20223;-74
2023/03/04 01:23:47;;;;;;;57.60;23.37;;;2.70;81.50;;;;;;5045901;28;20732;-73
2023/03/04 01:26:13;;;;;;;49.80;22.37;;;2.70;81.70;;;;;;5048061;28;20184;-72
2023/03/04 01:28:38;;;;;;;51.83;24.47;;;2.70;81.70;;;;;;5029781;28;20589;-72
2023/03/04 01:31:04;;;;;;;54.17;21.70;;;2.60;81.80;;;;;;5028668;28;20647;-72
2023/03/04 01:33:30;;;;;;;45.80;20.07;;;2.60;81.80;;;;;;5046289;28;20215;-73
2023/03/04 01:35:57;;;;;;;54.60;21.30;;;2.60;81.90;;;;;;5049337;28;20485;-73
2023/03/04 01:38:23;;;;;;;56.70;21.30;;;2.60;81.90;;;;;;5045044;28;20216;-74
2023/03/04 01:40:50;;;;;;;46.73;22.90;;;2.50;81.90;;;;;;5047311;28;20847;-72
2023/03/04 01:43:23;;;;;;;52.47;21.70;;;2.50;82.10;;;;;;5045604;28;20438;-71
2023/03/04 01:45:51;;;;;;;53.90;21.90;;;2.50;82.10;;;;;;5051203;28;20415;-71
2023/03/04 01:48:23;;;;;;;43.03;20.50;;;2.50;82.10;;;;;;5042217;28;20909;-72
2023/03/04 01:50:49;;;;;;;57.70;23.80;;;2.50;82.10;;;;;;5046986;28;20436;-72
2023/03/04 01:53:21;;;;;;;55.03;23.63;;;2.40;82.10;;;;;;5050738;28;20510;-74
2023/03/04 01:55:47;;;;;;;58.50;23.90;;;2.50;82.10;;;;;;5051523;28;20203;-72
2023/03/04 01:58:12;;;;;;;51.77;21.33;;;2.50;82.10;;;;;;5043786;28;20493;-74
2023/03/04 02:00:38;;;;;;;60.33;22.67;;;2.40;81.90;;;;;;5050287;28;20509;-74
2023/03/04 02:03:07;;;;;;;51.67;24.43;;;2.30;82.10;;;;;;5051837;28;20185;-73
2023/03/04 02:05:36;;;;;;;49.13;22.13;;;2.20;82.10;;;;;;5049452;28;20421;-74
2023/03/04 02:08:03;;;;;;;52.53;23.13;;;2.20;82.70;;;;;;5032656;28;20473;-74
2023/03/04 02:10:29;;;;;;;50.90;21.07;;;2.20;82.80;;;;;;5049660;28;20969;-72
2023/03/04 02:12:54;;;;;;;55.40;25.57;;;2.20;83.00;;;;;;5050757;28;20522;-72
2023/03/04 02:15:20;;;;;;;44.53;21.20;;;2.20;83.00;;;;;;5048279;28;20644;-72
2023/03/04 02:17:49;;;;;;;46.73;21.00;;;2.20;83.00;;;;;;5032581;28;20222;-74
2023/03/04 02:20:19;;;;;;;46.22;19.33;;;2.20;83.00;;;;;;5052812;28;20945;-73
2023/03/04 02:23:18;;;;;;;46.00;21.27;;;2.20;82.70;;;;;;5050126;28;20185;-72
2023/03/04 02:26:35;;;;;;;55.53;22.90;;;2.10;82.80;;;;;;5029731;28;20438;-72
2023/03/04 02:29:02;;;;;;;52.00;21.47;;;2.10;83.00;;;;;;5007784;28;20544;-72
2023/03/04 02:31:32;;;;;;;48.93;22.47;;;2.00;83.10;;;;;;5009653;28;20429;-72
2023/03/04 02:34:00;;;;;;;55.17;22.03;;;2.00;83.30;;;;;;5009978;28;20858;-73
2023/03/04 02:36:27;;;;;;;55.90;22.70;;;2.00;83.30;;;;;;4989701;28;20913;-73
2023/03/04 02:38:54;;;;;;;55.90;24.60;;;2.00;83.40;;;;;;5005866;28;20452;-74
2023/03/04 02:41:24;;;;;;;48.93;20.67;;;2.00;83.40;;;;;;5008862;28;20987;-73
2023/03/04 02:43:53;;;;;;;48.13;21.93;;;1.90;83.30;;;;;;5005343;28;20448;-72
2023/03/04 02:46:19;;;;;;;47.90;21.00;;;1.90;83.40;;;;;;5006540;28;20499;-74
2023/03/04 02:48:44;;;;;;;60.23;24.07;;;1.80;83.60;;;;;;5005116;28;20452;-72
2023/03/04 02:51:10;;;;;;;48.60;23.07;;;1.80;83.80;;;;;;5009463;28;20204;-73
2023/03/04 02:53:35;;;;;;;51.90;22.57;;;1.80;83.80;;;;;;5010424;28;20201;-74
2023/03/04 02:56:01;;;;;;;51.70;21.80;;;1.80;83.70;;;;;;5007232;28;20711;-73
2023/03/04 02:58:27;;;;;;;44.03;20.20;;;1.70;83.70;;;;;;5007070;28;20289;-74
2023/03/04 03:01:01;;;;;;;57.17;22.83;;;1.70;84.00;;;;;;4984483;28;20890;-76
2023/03/04 03:03:27;;;;;;;53.93;20.60;;;1.60;83.80;;;;;;4991220;28;20570;-72
2023/03/04 03:05:53;;;;;;;49.70;21.23;;;1.60;84.40;;;;;;5053443;28;20518;-72
2023/03/04 03:08:19;;;;;;;48.17;21.73;;;1.50;84.60;;;;;;5046436;28;20766;-71
2023/03/04 03:10:44;;;;;;;45.53;19.47;;;1.60;84.70;;;;;;5052927;28;20983;-74
2023/03/04 03:13:10;;;;;;;45.57;19.90;;;1.60;84.70;;;;;;5032810;28;20419;-74
2023/03/04 03:15:40;;;;;;;51.33;20.17;;;1.60;84.70;;;;;;5050283;28;20197;-74
2023/03/04 03:18:07;;;;;;;48.20;20.40;;;1.60;84.70;;;;;;5047974;28;20304;-72
2023/03/04 03:20:33;;;;;;;45.77;19.27;;;1.50;84.40;;;;;;5048345;28;20232;-73
2023/03/04 03:22:59;;;;;;;50.30;19.73;;;1.50;84.60;;;;;;5049597;28;20450;-72
2023/03/04 03:25:24;;;;;;;50.47;22.60;;;1.40;84.60;;;;;;5042244;28;20189;-73
2023/03/04 03:27:50;;;;;;;49.90;21.10;;;1.40;84.90;;;;;;5048101;28;20742;-73
2023/03/04 03:30:15;;;;;;;50.27;20.97;;;1.40;85.00;;;;;;5029366;28;20185;-74
2023/03/04 03:32:41;;;;;;;54.50;21.47;;;1.40;84.90;;;;;;5051388;28;20246;-72
2023/03/04 03:35:07;;;;;;;49.67;20.63;;;1.30;84.90;;;;;;5048607;28;20216;-74
2023/03/04 03:37:32;;;;;;;45.53;20.10;;;1.30;85.00;;;;;;5047023;28;20196;-73
2023/03/04 03:40:01;;;;;;;41.40;20.07;;;1.30;85.20;;;;;;5044880;28;20432;-73
2023/03/04 03:42:26;;;;;;;48.30;22.20;;;1.30;85.20;;;;;;5048644;28;20223;-72
2023/03/04 03:44:52;;;;;;;54.50;23.07;;;1.30;85.20;;;;;;5043213;28;20239;-73
2023/03/04 03:47:17;;;;;;;57.63;22.33;;;1.20;85.20;;;;;;5043984;28;20212;-72
2023/03/04 03:49:43;;;;;;;57.33;23.63;;;1.10;85.30;;;;;;5042481;28;20177;-72
2023/03/04 03:52:09;;;;;;;47.40;21.33;;;1.10;85.30;;;;;;5047949;28;20199;-74
2023/03/04 03:54:35;;;;;;;49.10;22.10;;;1.00;85.60;;;;;;5046836;28;20212;-74
2023/03/04 03:57:00;;;;;;;50.05;21.63;;;1.00;85.60;;;;;;5037950;28;20216;-73
2023/03/04 03:59:26;;;;;;;47.03;20.40;;;0.90;85.70;;;;;;5044463;28;20188;-72
2023/03/04 04:01:52;;;;;;;53.20;20.93;;;0.90;86.00;;;;;;5044517;28;20715;-74
2023/03/04 04:04:17;;;;;;;46.97;20.77;;;0.90;86.00;;;;;;5048771;28;20272;-74
2023/03/04 04:06:43;;;;;;;50.90;21.77;;;0.90;86.30;;;;;;5050506;28;20204;-72
2023/03/04 04:09:08;;;;;;;56.70;22.20;;;0.80;86.50;;;;;;5051441;28;20180;-73
2023/03/04 04:11:35;;;;;;;62.40;23.40;;;0.80;86.60;;;;;;5050950;28;20184;-73
2023/03/04 04:14:01;;;;;;;48.85;21.70;;;0.80;86.80;;;;;;5051141;28;20254;-73
2023/03/04 04:16:27;;;;;;;55.03;20.70;;;0.80;86.60;;;;;;5049098;28;20750;-72
2023/03/04 04:18:52;;;;;;;43.40;19.63;;;0.80;86.60;;;;;;5044056;28;20647;-74
2023/03/04 04:21:18;;;;;;;49.63;22.77;;;0.80;86.60;;;;;;5049726;28;20254;-72
2023/03/04 04:23:43;;;;;;;53.20;20.47;;;0.70;86.50;;;;;;5049927;28;20287;-72
2023/03/04 04:26:09;;;;;;;50.47;20.93;;;0.70;86.60;;;;;;5048837;28;20184;-73
2023/03/04 04:28:34;;;;;;;60.93;23.40;;;0.60;86.60;;;;;;5043359;28;20189;-71
2023/03/04 04:31:00;;;;;;;45.53;20.37;;;0.60;86.50;;;;;;5045100;28;20188;-72
2023/03/04 04:33:25;;;;;;;46.33;19.70;;;0.60;86.50;;;;;;5045843;28;20196;-72
2023/03/04 04:35:51;;;;;;;52.43;20.77;;;0.50;86.80;;;;;;5026549;28;20191;-73
2023/03/04 04:38:20;;;;;;;51.10;23.60;;;0.40;87.00;;;;;;5038732;28;20219;-75
2023/03/04 04:40:45;;;;;;;50.28;21.88;;;0.40;87.30;;;;;;5042969;28;20950;-74
2023/03/04 04:43:11;;;;;;;45.60;19.90;;;0.50;87.60;;;;;;5031180;28;20188;-74
2023/03/04 04:45:36;;;;;;;50.27;20.97;;;0.50;87.60;;;;;;5048565;28;20189;-73
2023/03/04 04:48:02;;;;;;;47.77;21.57;;;0.50;87.40;;;;;;5043307;28;20210;-72
2023/03/04 04:50:27;;;;;;;48.63;18.90;;;0.50;87.40;;;;;;5047102;28;20312;-72
2023/03/04 04:52:53;;;;;;;51.70;21.53;;;0.50;87.60;;;;;;5049067;28;20212;-72
2023/03/04 04:55:18;;;;;;;55.13;22.20;;;0.50;87.60;;;;;;5046436;28;20195;-75
2023/03/04 04:57:44;;;;;;;47.13;20.93;;;0.50;87.70;;;;;;5042079;28;20216;-71
2023/03/04 05:00:10;;;;;;;49.03;20.70;;;0.40;87.70;;;;;;5044930;28;20200;-72
2023/03/04 05:02:36;;;;;;;45.97;18.65;;;0.40;87.70;;;;;;5043590;28;20180;-73
2023/03/04 05:05:04;;;;;;;43.70;20.20;;;0.40;87.80;;;;;;5045334;28;20185;-72
2023/03/04 05:07:29;;;;;;;47.88;20.52;;;0.40;88.00;;;;;;5044538;28;20446;-73
2023/03/04 05:09:55;;;;;;;55.20;20.33;;;0.40;88.00;;;;;;5050966;28;20658;-73
2023/03/04 05:12:20;;;;;;;46.30;20.83;;;0.40;88.00;;;;;;5031618;28;20192;-74
2023/03/04 05:14:46;;;;;;;53.27;20.37;;;0.30;88.00;;;;;;5049450;28;20241;-73
2023/03/04 05:17:11;;;;;;;51.23;19.60;;;0.40;88.10;;;;;;5045249;28;20291;-73
2023/03/04 05:19:37;;;;;;;51.00;19.57;;;0.40;88.30;;;;;;5035499;28;20188;-75
2023/03/04 05:22:03;;;;;;;41.27;18.10;;;0.40;88.10;;;;;;5047606;28;20209;-72
2023/03/04 05:24:28;;;;;;;44.80;18.73;;;0.40;87.80;;;;;;5051830;28;20188;-73
2023/03/04 05:26:54;;;;;;;44.47;19.37;;;0.40;87.70;;;;;;5041514;28;20209;-72
2023/03/04 05:29:19;;;;;;;44.77;19.80;;;0.40;87.60;;;;;;5050404;28;20189;-74
2023/03/04 05:31:45;;;;;;;41.20;18.27;;;0.40;87.60;;;;;;5053102;28;20840;-73
2023/03/04 05:34:10;;;;;;;55.60;20.20;;;0.30;87.70;;;;;;5035018;28;20192;-71
2023/03/04 05:36:36;;;;;;;49.03;19.33;;;0.30;88.00;;;;;;5048937;28;20208;-74
2023/03/04 05:39:02;;;;;;;42.87;19.30;;;0.30;88.10;;;;;;5051321;28;20202;-75
2023/03/04 05:41:27;;;;;;;43.97;18.57;;;0.20;88.10;;;;;;5032114;28;20227;-74
2023/03/04 05:43:53;;;;;;;40.30;19.93;;;0.20;88.30;;;;;;5050973;28;20192;-72
2023/03/04 05:46:24;;;;;;;46.77;19.50;;;0.10;88.40;;;;;;5047169;28;20187;-72
2023/03/04 05:48:51;;;;;;;51.42;19.40;;;0.20;88.70;;;;;;5047072;28;20187;-72
2023/03/04 05:51:16;;;;;;;43.42;21.25;;;0.20;88.70;;;;;;5052438;28;20188;-72
2023/03/04 05:53:42;;;;;;;48.83;21.13;;;0.20;88.60;;;;;;5052088;28;20191;-73
2023/03/04 05:56:14;;;;;;;41.53;18.47;;;0.30;88.70;;;;;;5050903;28;20192;-74
2023/03/04 05:58:39;;;;;;;54.63;19.58;;;0.30;88.60;;;;;;5048166;28;20195;-72
2023/03/04 06:01:05;;;;;;;47.97;20.80;;;0.40;88.60;;;;;;5049264;28;20204;-71
2023/03/04 06:03:32;;;;;;;51.30;18.85;;;0.50;88.40;;;;;;5031556;28;20288;-73
2023/03/04 06:05:57;;;;;;;52.22;20.10;;;0.60;88.10;;;;;;5048214;28;20192;-73
2023/03/04 06:08:23;;;;;;;44.20;18.00;;;0.60;87.80;;;;;;5047067;28;20208;-75
2023/03/04 06:10:51;;;;;;;51.03;21.20;;;0.60;87.70;;;;;;5047435;28;20185;-73
2023/03/04 06:13:17;;;;;;;53.15;20.15;;;0.60;87.80;;;;;;5035258;28;20200;-73
2023/03/04 06:15:43;;;;;;;46.83;20.03;;;0.60;87.70;;;;;;5047936;28;20726;-72
2023/03/04 06:18:08;;;;;;;56.33;19.57;;;0.60;87.80;;;;;;5047942;28;20250;-74
2023/03/04 06:20:34;;;;;;;63.23;20.90;;;0.60;87.60;;;;;;5048860;28;20212;-74
2023/03/04 06:23:00;;;;;;;61.53;21.13;;;0.60;87.60;;;;;;5049893;28;20245;-74
2023/03/04 06:25:25;;;;;;;51.97;20.00;;;0.60;87.60;;;;;;5048335;28;20580;-74
2023/03/04 06:27:51;;;;;;;47.77;18.90;;;0.60;87.60;;;;;;5047608;28;20764;-74
2023/03/04 06:30:17;;;;;;;41.70;16.67;;;0.60;87.70;;;;;;5052922;28;20188;-75
2023/03/04 06:32:44;;;;;;;54.67;19.48;;;0.70;87.70;;;;;;5047146;28;20186;-74
2023/03/04 06:35:10;;;;;;;46.90;19.15;;;0.70;87.70;;;;;;5051953;28;20183;-76
2023/03/04 06:37:37;;;;;;;47.75;19.35;;;0.70;87.70;;;;;;5052411;28;20291;-76
2023/03/04 06:40:03;;;;;;;67.77;21.50;;;0.70;87.60;;;;;;5018435;28;1098457;-76
2023/03/04 06:42:28;;;;;;;54.10;19.73;;;0.70;87.60;;;;;;5059831;28;20204;-75
2023/03/04 06:44:54;;;;;;;52.83;18.53;;;0.70;87.60;;;;;;5057943;28;20660;-75
2023/03/04 06:47:20;;;;;;;55.47;20.90;;;0.70;87.60;;;;;;5060673;28;20209;-76
2023/03/04 06:49:45;;;;;;;52.17;20.40;;;0.70;87.60;;;;;;5054670;28;20191;-75
2023/03/04 06:52:11;;;;;;;51.73;19.83;;;0.70;87.60;;;;;;5054977;28;20189;-75
2023/03/04 06:54:37;;;;;;;56.92;21.70;;;0.80;87.70;;;;;;5039396;28;20192;-73
2023/03/04 06:57:03;;;;;;;52.65;20.60;;;0.90;87.60;;;;;;5033570;28;20303;-75
2023/03/04 06:59:29;;;;;;;49.87;19.67;;;0.90;87.10;;;;;;5052370;28;20322;-74
2023/03/04 07:01:54;;;;;;;48.33;19.73;;;0.90;87.00;;;;;;5047968;28;20209;-75
2023/03/04 07:04:22;;;;;;;55.53;19.83;;;1.00;86.90;;;;;;5034762;28;20230;-73
2023/03/04 07:06:48;;;;;;;54.42;20.40;;;1.00;86.90;;;;;;5042211;28;20254;-74
2023/03/04 07:09:13;;;;;;;46.45;19.40;;;1.00;87.00;;;;;;5048129;28;20644;-73
2023/03/04 07:11:39;;;;;;;49.37;20.87;;;1.00;86.60;;;;;;5057993;28;20230;-74
2023/03/04 07:14:05;;;;;;;49.67;18.20;;;1.00;86.50;;;;;;5059085;28;20251;-73
2023/03/04 07:16:30;;;;;;;54.57;19.67;;;0.90;86.30;;;;;;5057209;28;20213;-73
2023/03/04 07:18:56;;;;;;;58.60;19.50;;;0.80;86.50;;;;;;5058738;28;20192;-74
2023/03/04 07:21:21;;;;;;;52.83;19.40;;;0.90;86.90;;;;;;5053447;28;20220;-74
2023/03/04 07:23:47;;;;;;;56.03;19.77;;;0.90;86.90;;;;;;5052496;28;20188;-74
2023/03/04 07:26:13;;;;;;;48.00;19.53;;;0.80;87.00;;;;;;5033678;28;20207;-74
2023/03/04 07:28:39;;;;;;;51.83;18.67;;;0.90;87.00;;;;;;5048112;28;20235;-73
2023/03/04 07:31:24;;;;;;;50.73;19.80;;;1.00;87.00;;;;;;5046745;28;20467;-71
2023/03/04 07:33:50;;;;;;;49.22;19.42;;;1.10;87.00;;;;;;5052035;28;20610;-74
2023/03/04 07:36:18;;;;;;;45.60;18.88;;;1.10;86.80;;;;;;5049422;28;20184;-73
2023/03/04 07:38:45;;;;;;;50.03;19.17;;;1.10;86.50;;;;;;5046972;28;20876;-72
2023/03/04 07:41:11;;;;;;;49.45;18.73;;;1.10;86.00;;;;;;5052951;28;20214;-74
2023/03/04 07:43:37;;;;;;;47.27;18.13;;;1.20;86.20;;;;;;5053039;28;20172;-73
2023/03/04 07:46:02;;;;;;;49.93;18.73;;;1.10;85.60;;;;;;5053204;28;20180;-73
2023/03/04 07:48:28;;;;;;;49.50;18.13;;;1.10;85.90;;;;;;5052474;28;20211;-72
2023/03/04 07:51:09;;;;;;;49.27;20.53;;;1.00;85.90;;;;;;5053008;28;20438;-73
2023/03/04 07:53:35;;;;;;;43.10;18.05;;;1.00;86.50;;;;;;5046722;28;20188;-71
2023/03/04 07:56:01;;;;;;;50.85;19.77;;;1.10;86.80;;;;;;5053868;28;20188;-73
2023/03/04 07:58:27;;;;;;;46.80;18.53;;;1.10;86.60;;;;;;5050347;28;20207;-73
2023/03/04 08:00:52;;;;;;;36.80;17.67;;;1.10;86.30;;;;;;5058589;28;20466;-74
2023/03/04 08:03:18;;;;;;;46.17;17.97;;;1.20;86.30;;;;;;5064734;28;20192;-73
2023/03/04 08:05:43;;;;;;;44.67;18.70;;;1.20;85.90;;;;;;5063914;28;20184;-73
2023/03/04 08:08:09;;;;;;;42.83;16.60;;;1.10;85.70;;;;;;5061547;28;20208;-73
2023/03/04 08:10:35;;;;;;;40.17;16.70;;;1.10;85.70;;;;;;5056522;28;20180;-72
2023/03/04 08:13:01;;;;;;;47.70;18.83;;;1.20;85.90;;;;;;5052923;28;20204;-73
2023/03/04 08:15:26;;;;;;;39.03;16.43;;;1.20;85.90;;;;;;5052943;28;20473;-75
2023/03/04 08:17:52;;;;;;;44.47;17.13;;;1.20;85.90;;;;;;5045641;28;20349;-73
2023/03/04 08:20:18;;;;;;;41.87;18.13;;;1.20;85.90;;;;;;5052043;28;20192;-73
2023/03/04 08:22:43;;;;;;;44.50;18.07;;;1.20;85.70;;;;;;5052694;28;20784;-74
2023/03/04 08:25:09;;;;;;;42.40;18.07;;;1.30;85.90;;;;;;5052670;28;20697;-73
2023/03/04 08:27:36;;;;;;;50.13;18.05;;;1.30;85.70;;;;;;5052461;28;20497;-73
2023/03/04 08:30:03;;;;;;;37.05;15.38;;;1.30;85.50;;;;;;5053411;28;20191;-73
2023/03/04 08:32:29;;;;;;;45.97;17.60;;;1.20;85.50;;;;;;5055240;28;20255;-73
2023/03/04 08:34:55;;;;;;;47.73;19.30;;;1.20;85.60;;;;;;5051948;28;20211;-72
2023/03/04 08:37:21;;;;;;;41.95;15.93;;;1.20;85.90;;;;;;5048694;28;20287;-73
2023/03/04 08:39:47;;;;;;;45.55;17.63;;;1.10;86.30;;;;;;5041432;28;20240;-73
2023/03/04 08:42:13;;;;;;;42.97;15.40;;;1.10;86.60;;;;;;5046890;28;20240;-72
2023/03/04 08:44:38;;;;;;;45.20;16.37;;;1.20;86.60;;;;;;5050393;28;20533;-72
2023/03/04 08:47:04;;;;;;;40.70;17.03;;;1.30;86.60;;;;;;5048823;28;20253;-74
2023/03/04 08:49:30;;;;;;;53.67;19.80;;;1.30;86.20;;;;;;5032232;28;20204;-74
2023/03/04 08:51:55;;;;;;;44.77;17.60;;;1.30;86.20;;;;;;5051451;28;20461;-72
2023/03/04 08:54:21;;;;;;;43.70;18.20;;;1.30;86.00;;;;;;5049376;28;20185;-71
2023/03/04 08:56:46;;;;;;;50.07;18.30;;;1.30;85.90;;;;;;5047193;28;20262;-72
2023/03/04 08:59:12;;;;;;;47.67;18.70;;;1.40;86.30;;;;;;5049510;28;20180;-74
2023/03/04 09:01:38;;;;;;;44.33;17.73;;;1.50;86.30;;;;;;5053184;28;20204;-74
2023/03/04 09:04:03;;;;;;;48.73;20.40;;;1.60;86.00;;;;;;5050660;28;20191;-72
2023/03/04 09:06:29;;;;;;;45.40;17.87;;;1.70;85.30;;;;;;5029964;28;20283;-72
2023/03/04 09:08:55;;;;;;;47.93;18.23;;;1.80;85.20;;;;;;5037077;28;20197;-72
2023/03/04 09:11:20;;;;;;;44.33;18.33;;;1.90;84.90;;;;;;5053358;28;20647;-72
2023/03/04 09:13:46;;;;;;;44.53;19.07;;;1.80;83.60;;;;;;5053783;28;20198;-74
2023/03/04 09:16:13;;;;;;;50.57;17.90;;;1.70;83.80;;;;;;5051060;28;20223;-72
2023/03/04 09:18:40;;;;;;;40.35;17.33;;;1.80;84.10;;;;;;5054275;28;20185;-73
2023/03/04 09:21:07;;;;;;;43.03;17.85;;;1.90;83.80;;;;;;5054149;28;20246;-72
2023/03/04 09:23:33;;;;;;;43.28;16.73;;;2.00;83.60;;;;;;5053792;28;20183;-73
2023/03/04 09:25:59;;;;;;;45.20;17.58;;;2.00;83.00;;;;;;5053423;28;20180;-73
2023/03/04 09:28:25;;;;;;;39.40;16.63;;;2.10;82.70;;;;;;5052691;28;20324;-73
2023/03/04 09:30:50;;;;;;;46.13;18.13;;;2.20;82.70;;;;;;5057521;28;20183;-73
2023/03/04 09:33:16;;;;;;;45.07;16.90;;;2.30;82.10;;;;;;5034310;28;20198;-73
2023/03/04 09:35:43;;;;;;;44.90;17.30;;;2.40;81.70;;;;;;5057120;28;20195;-73
2023/03/04 09:38:08;;;;;;;46.40;17.10;;;2.40;80.90;;;;;;5028173;28;20458;-73
2023/03/04 09:40:44;;;;;;;45.07;18.47;;;2.30;80.60;;;;;;5055948;28;20443;-72
2023/03/04 09:43:26;;;;;;;46.72;19.42;;;2.10;80.50;;;;;;5056300;28;20534;-73
2023/03/04 09:45:59;;;;;;;39.35;15.48;;;2.00;81.40;;;;;;5055679;28;20192;-72
2023/03/04 09:48:27;;;;;;;43.90;16.95;;;2.00;81.90;;;;;;5052536;28;20208;-72
2023/03/04 09:51:20;;;;;;;46.20;17.70;;;2.20;81.70;;;;;;5053466;28;20187;-74
2023/03/04 09:53:45;;;;;;;40.40;17.20;;;2.30;81.20;;;;;;5047532;28;20418;-73
2023/03/04 09:56:12;;;;;;;49.30;17.23;;;2.30;80.50;;;;;;5059117;28;20706;-74
2023/03/04 09:58:47;;;;;;;43.22;17.35;;;2.30;80.00;;;;;;5058430;28;20192;-71
2023/03/04 10:01:39;;;;;;;35.13;16.47;;;2.10;80.00;;;;;;5058972;28;20208;-73
2023/03/04 10:04:31;;;;;;;41.10;17.30;;;2.10;79.90;;;;;;5036045;28;20427;-72
2023/03/04 10:06:57;;;;;;;45.80;17.60;;;2.20;79.90;;;;;;5054888;28;20450;-73
2023/03/04 10:09:28;;;;;;;49.70;19.30;;;2.50;79.60;;;;;;5057583;28;20419;-74
2023/03/04 10:12:00;;;;;;;41.73;18.23;;;2.70;78.30;;;;;;5055835;28;20184;-75
2023/03/04 10:14:42;;;;;;;39.83;16.17;;;2.90;77.70;;;;;;5037171;28;20443;-75
2023/03/04 10:17:21;;;;;;;40.43;17.30;;;3.00;77.00;;;;;;5046211;28;20997;-73
2023/03/04 10:20:20;;;;;;;39.97;17.30;;;3.00;76.10;;;;;;5038896;28;20430;-74
2023/03/04 10:22:57;;;;;;;47.07;19.03;;;3.10;76.20;;;;;;5035444;28;20436;-74
2023/03/04 10:25:26;;;;;;;42.73;18.03;;;3.10;76.10;;;;;;5055661;28;20418;-75
2023/03/04 10:28:14;;;;;;;44.47;18.40;;;3.20;76.10;;;;;;5045137;28;20446;-74
2023/03/04 10:30:56;;;;;;;44.10;18.67;;;3.20;75.50;;;;;;5039051;28;20419;-73
2023/03/04 10:33:25;;;;;;;49.93;20.07;;;3.20;75.70;;;;;;5038583;28;20831;-73
2023/03/04 10:36:21;;;;;;;49.47;20.93;;;3.10;75.50;;;;;;5037394;28;20415;-73
2023/03/04 10:38:47;;;;;;;47.83;19.97;;;3.00;75.80;;;;;;5049412;28;20934;-73
2023/03/04 10:41:21;;;;;;;46.55;19.25;;;3.10;75.50;;;;;;5055869;28;20498;-72
2023/03/04 10:44:08;;;;;;;44.50;18.63;;;3.00;75.70;;;;;;5055819;28;20196;-73
2023/03/04 10:46:38;;;;;;;48.67;20.27;;;3.10;76.20;;;;;;5043305;28;20458;-74
2023/03/04 10:49:04;;;;;;;45.40;19.20;;;3.10;75.40;;;;;;5053884;28;20476;-72
2023/03/04 10:51:30;;;;;;;49.77;20.67;;;3.10;75.70;;;;;;5037409;28;20832;-73
2023/03/04 10:54:20;;;;;;;47.77;20.50;;;3.10;75.80;;;;;;5055611;28;20192;-74
2023/03/04 10:56:53;;;;;;;53.17;20.83;;;3.20;75.10;;;;;;5055784;28;20446;-74
2023/03/04 10:59:34;;;;;;;53.60;20.90;;;3.40;74.80;;;;;;5055858;28;20415;-74
2023/03/04 11:02:26;;;;;;;51.83;21.17;;;3.40;74.30;;;;;;5055765;28;20468;-75
2023/03/04 11:05:06;;;;;;;57.83;22.00;;;3.20;74.50;;;;;;5049736;28;20428;-74
2023/03/04 11:07:38;;;;;;;63.40;24.13;;;3.30;74.90;;;;;;5039761;28;20437;-72
2023/03/04 11:10:20;;;;;;;59.53;24.50;;;3.40;74.00;;;;;;5040731;28;20411;-72
2023/03/04 11:12:57;;;;;;;55.83;22.33;;;3.30;74.30;;;;;;5047921;28;20433;-72
2023/03/04 11:15:26;;;;;;;60.90;23.37;;;3.30;74.30;;;;;;5055680;28;20406;-73
2023/03/04 11:18:11;;;;;;;49.60;23.17;;;3.50;74.30;;;;;;5054817;28;20521;-73
2023/03/04 11:20:42;;;;;;;52.40;22.90;;;3.70;74.20;;;;;;5055298;28;20465;-73
2023/03/04 11:23:17;;;;;;;62.90;24.17;;;3.80;73.30;;;;;;5056032;28;20441;-72
2023/03/04 11:26:01;;;;;;;57.93;23.63;;;3.80;72.90;;;;;;5043876;28;20426;-73
2023/03/04 11:28:35;;;;;;;64.73;24.47;;;3.70;73.00;;;;;;5055068;28;20513;-74
2023/03/04 11:31:07;;;;;;;60.17;23.30;;;3.70;73.00;;;;;;5042324;28;20423;-74
2023/03/04 11:33:42;;;;;;;64.97;26.07;;;3.70;73.30;;;;;;5056740;28;20432;-73
2023/03/04 11:36:32;;;;;;;67.50;24.70;;;3.60;73.00;;;;;;5045679;28;20466;-75
2023/03/04 11:38:58;;;;;;;67.97;24.13;;;3.60;73.20;;;;;;5054362;28;20431;-73
2023/03/04 11:41:48;;;;;;;67.60;25.67;;;3.60;73.20;;;;;;5036540;28;20838;-72
2023/03/04 11:44:13;;;;;;;69.50;26.27;;;3.60;72.90;;;;;;5045412;28;20435;-74
2023/03/04 11:46:55;;;;;;;67.17;23.37;;;3.70;72.60;;;;;;5054870;28;20873;-74
2023/03/04 11:49:39;;;;;;;68.13;26.10;;;3.80;72.40;;;;;;5056645;28;20184;-73
2023/03/04 11:52:42;;;;;;;68.40;25.20;;;3.70;72.30;;;;;;5051265;28;20437;-75
2023/03/04 11:55:24;;;;;;;67.50;24.87;;;3.50;72.90;;;;;;5033946;28;20412;-75
2023/03/04 11:58:24;;;;;;;65.17;25.77;;;3.50;74.20;;;;;;5048490;28;20462;-75
2023/03/04 12:01:27;;;;;;;65.57;25.27;;;3.60;74.30;;;;;;5047009;28;20459;-73
2023/03/04 12:04:17;;;;;;;69.93;25.93;;;3.40;74.00;;;;;;5046701;28;20427;-71
2023/03/04 12:06:49;;;;;;;67.67;27.67;;;3.50;74.30;;;;;;5043701;28;20454;-73
2023/03/04 12:09:29;;;;;;;71.23;27.47;;;3.50;74.00;;;;;;5034967;28;20814;-73
2023/03/04 12:12:18;;;;;;;68.27;25.03;;;3.50;74.50;;;;;;5060663;28;20485;-72
2023/03/04 12:14:43;;;;;;;58.77;23.67;;;3.50;74.60;;;;;;5058793;28;20451;-73
2023/03/04 12:17:35;;;;;;;62.53;27.00;;;3.40;74.50;;;;;;5060961;28;20446;-74
2023/03/04 12:20:19;;;;;;;64.70;25.70;;;3.50;74.50;;;;;;5031714;28;20246;-73
2023/03/04 12:22:50;;;;;;;59.70;24.60;;;3.70;74.30;;;;;;5035098;28;20519;-73
2023/03/04 12:25:31;;;;;;;61.17;24.20;;;3.80;74.00;;;;;;5052896;28;20419;-73
2023/03/04 12:28:23;;;;;;;71.10;26.67;;;3.90;73.60;;;;;;5041138;28;20450;-72
2023/03/04 12:31:26;;;;;;;61.33;24.70;;;3.80;73.00;;;;;;5032732;28;20426;-74
2023/03/04 12:34:01;;;;;;;59.80;26.20;;;3.50;73.50;;;;;;5048787;28;20422;-72
2023/03/04 12:36:44;;;;;;;69.50;26.30;;;3.50;73.70;;;;;;5049406;28;20442;-73
2023/03/04 12:39:34;;;;;;;62.90;25.30;;;3.40;74.00;;;;;;5047908;28;20823;-73
2023/03/04 12:42:29;;;;;;;59.90;23.73;;;3.40;74.00;;;;;;5049666;28;20459;-72
2023/03/04 12:45:17;;;;;;;73.00;26.50;;;3.40;74.30;;;;;;5050114;28;20842;-75
2023/03/04 12:48:16;;;;;;;66.73;26.37;;;3.50;74.60;;;;;;5040896;28;20954;-73